Time;durP1;ratioP1;P1;durP2;ratioP2;P2;SDS_P1;SDS_P2;PMS_P1;PMS_P2;Temp;Humidity;BMP_temperature;BMP_pressure;BME280_temperature;BME280_humidity;BME280_pressure;Samples;Min_cycle;Max_cycle;Signal;HPM_P1;HPM_P2
2021/04/14 00:01:50;;;;;;;10.67;6.67;;;3.90;75.30;;;;;;5033337;28;20037;-80
2021/04/14 00:04:16;;;;;;;11.70;6.03;;;3.80;75.60;;;;;;5030261;28;20509;-81
2021/04/14 00:06:43;;;;;;;9.73;6.40;;;3.80;75.80;;;;;;5033031;28;20033;-81
2021/04/14 00:09:09;;;;;;;13.53;5.90;;;3.80;75.90;;;;;;5031562;28;20029;-79
2021/04/14 00:11:36;;;;;;;11.63;6.10;;;3.70;75.90;;;;;;5034048;28;20124;-81
2021/04/14 00:14:02;;;;;;;9.27;6.43;;;3.70;75.90;;;;;;5032301;28;20536;-80
2021/04/14 00:16:29;;;;;;;9.17;5.87;;;3.70;76.10;;;;;;5014142;28;20061;-81
2021/04/14 00:18:55;;;;;;;11.30;6.00;;;3.80;76.50;;;;;;5029732;28;20769;-80
2021/04/14 00:21:22;;;;;;;9.87;6.13;;;3.80;76.50;;;;;;5030461;28;20032;-79
2021/04/14 00:23:48;;;;;;;10.17;6.23;;;3.70;75.90;;;;;;5031463;28;20018;-79
2021/04/14 00:26:15;;;;;;;8.40;5.60;;;3.70;76.10;;;;;;5014156;28;20028;-80
2021/04/14 00:28:42;;;;;;;7.83;5.40;;;3.70;76.20;;;;;;5031705;28;20025;-80
2021/04/14 00:31:08;;;;;;;11.50;6.30;;;3.70;76.20;;;;;;5030880;28;20130;-80
2021/04/14 00:33:34;;;;;;;7.70;5.67;;;3.60;76.50;;;;;;5030493;28;20096;-80
2021/04/14 00:36:00;;;;;;;10.60;6.40;;;3.60;76.60;;;;;;5029623;28;20115;-80
2021/04/14 00:38:26;;;;;;;10.70;5.93;;;3.70;76.50;;;;;;5029925;28;20025;-80
2021/04/14 00:40:58;;;;;;;10.10;6.10;;;3.70;76.20;;;;;;5013164;28;20026;-80
2021/04/14 00:43:29;;;;;;;9.63;5.85;;;3.70;76.30;;;;;;5031817;28;20021;-80
2021/04/14 00:45:55;;;;;;;11.07;5.97;;;3.70;76.40;;;;;;5029397;28;20022;-80
2021/04/14 00:48:22;;;;;;;10.00;6.00;;;3.70;76.20;;;;;;5031375;28;20028;-80
2021/04/14 00:50:48;;;;;;;9.37;5.93;;;3.70;76.30;;;;;;5031644;28;20021;-80
2021/04/14 00:53:14;;;;;;;7.90;5.57;;;3.70;76.40;;;;;;5031062;28;20057;-80
2021/04/14 00:55:41;;;;;;;8.07;5.00;;;3.60;76.50;;;;;;5029654;28;20021;-80
2021/04/14 00:58:09;;;;;;;9.53;5.70;;;3.60;76.50;;;;;;5027917;28;20026;-80
2021/04/14 01:00:34;;;;;;;11.43;5.83;;;3.60;76.30;;;;;;5029830;28;20030;-80
2021/04/14 01:03:01;;;;;;;10.20;5.30;;;3.50;76.50;;;;;;5030460;28;20025;-80
2021/04/14 01:05:29;;;;;;;8.57;5.63;;;3.50;76.40;;;;;;5017524;28;20021;-80
2021/04/14 01:07:55;;;;;;;8.23;5.33;;;3.40;76.30;;;;;;5036303;28;20056;-80
2021/04/14 01:10:21;;;;;;;8.73;5.47;;;3.40;77.20;;;;;;5016518;28;20416;-80
2021/04/14 01:12:47;;;;;;;7.93;5.73;;;3.50;77.60;;;;;;5050509;28;20490;-80
2021/04/14 01:15:17;;;;;;;12.07;5.80;;;3.50;77.80;;;;;;5031962;28;20101;-80
2021/04/14 01:17:43;;;;;;;8.77;5.57;;;3.50;77.20;;;;;;5032933;28;20025;-80
2021/04/14 01:20:09;;;;;;;9.10;5.20;;;3.50;77.40;;;;;;5015195;28;20385;-79
2021/04/14 01:22:35;;;;;;;7.93;5.20;;;3.50;77.30;;;;;;5033245;28;20037;-80
2021/04/14 01:25:01;;;;;;;9.73;5.20;;;3.50;77.10;;;;;;5032135;28;20364;-80
2021/04/14 01:27:27;;;;;;;8.90;5.30;;;3.40;76.80;;;;;;5016328;28;20546;-80
2021/04/14 01:29:52;;;;;;;8.30;5.03;;;3.40;77.00;;;;;;5049152;28;20154;-79
2021/04/14 01:32:18;;;;;;;9.03;5.03;;;3.30;76.70;;;;;;5049784;28;20363;-80
2021/04/14 01:34:44;;;;;;;11.37;5.40;;;3.20;76.60;;;;;;5050521;28;20040;-80
2021/04/14 01:37:09;;;;;;;13.27;5.07;;;3.10;76.60;;;;;;5064097;28;20504;-80
2021/04/14 01:39:35;;;;;;;7.37;4.70;;;3.10;77.00;;;;;;5050314;28;20130;-80
2021/04/14 01:42:00;;;;;;;7.20;4.70;;;3.10;77.30;;;;;;5031605;28;20477;-80
2021/04/14 01:44:26;;;;;;;9.97;5.80;;;3.10;77.60;;;;;;5049681;28;20025;-81
2021/04/14 01:46:52;;;;;;;6.97;4.13;;;3.20;78.00;;;;;;5032526;28;20083;-80
2021/04/14 01:49:17;;;;;;;6.70;4.63;;;3.30;77.70;;;;;;5031735;28;20104;-80
2021/04/14 01:51:43;;;;;;;8.47;4.57;;;3.30;77.50;;;;;;5031999;28;20393;-80
2021/04/14 01:54:10;;;;;;;7.07;4.50;;;3.30;77.60;;;;;;5031989;28;20423;-80
2021/04/14 01:56:36;;;;;;;6.73;4.60;;;3.30;77.50;;;;;;5032477;28;20025;-80
2021/04/14 01:59:03;;;;;;;7.23;4.70;;;3.40;77.40;;;;;;5031060;28;20032;-79
2021/04/14 02:01:29;;;;;;;6.97;4.20;;;3.40;77.40;;;;;;5031904;28;20068;-80
2021/04/14 02:03:56;;;;;;;8.47;4.20;;;3.50;77.40;;;;;;5032069;28;20064;-80
2021/04/14 02:06:22;;;;;;;9.07;4.37;;;3.60;77.10;;;;;;5031632;28;20540;-80
2021/04/14 02:08:48;;;;;;;9.60;4.33;;;3.60;76.90;;;;;;5032542;28;20056;-80
2021/04/14 02:11:15;;;;;;;7.17;4.23;;;3.60;76.90;;;;;;5015139;28;20040;-79
2021/04/14 02:13:42;;;;;;;7.27;4.27;;;3.70;76.90;;;;;;5032290;28;20091;-79
2021/04/14 02:16:14;;;;;;;6.97;4.07;;;3.70;75.90;;;;;;5031998;28;20032;-80
2021/04/14 02:18:40;;;;;;;6.80;4.03;;;3.60;75.70;;;;;;5033078;28;20025;-80
2021/04/14 02:21:06;;;;;;;7.57;4.17;;;3.60;76.10;;;;;;5015316;28;20366;-81
2021/04/14 02:23:34;;;;;;;8.27;4.10;;;3.60;75.90;;;;;;5028587;28;20120;-79
2021/04/14 02:26:02;;;;;;;11.30;4.93;;;3.60;76.30;;;;;;5040514;28;20025;-79
2021/04/14 02:28:28;;;;;;;7.73;4.03;;;3.70;77.00;;;;;;5059940;28;20463;-79
2021/04/14 02:30:55;;;;;;;7.47;4.20;;;3.70;76.90;;;;;;5016362;28;20036;-79
2021/04/14 02:33:21;;;;;;;9.00;3.80;;;3.70;76.60;;;;;;5045905;28;20109;-79
2021/04/14 02:35:48;;;;;;;7.63;3.90;;;3.70;76.50;;;;;;5032663;28;20083;-80
2021/04/14 02:38:14;;;;;;;8.13;3.90;;;3.70;76.40;;;;;;5031501;28;20610;-79
2021/04/14 02:40:41;;;;;;;7.20;3.90;;;3.70;76.50;;;;;;5035253;28;20108;-79
2021/04/14 02:43:07;;;;;;;6.03;3.57;;;3.80;76.50;;;;;;5035656;28;20028;-79
2021/04/14 02:45:35;;;;;;;5.90;3.63;;;3.90;76.40;;;;;;5036345;28;20060;-79
2021/04/14 02:48:01;;;;;;;6.60;2.93;;;3.90;76.50;;;;;;5054002;28;20043;-79
2021/04/14 02:50:29;;;;;;;6.80;3.57;;;4.00;76.60;;;;;;5035689;28;20466;-80
2021/04/14 02:52:55;;;;;;;5.23;3.67;;;4.00;76.40;;;;;;5021105;28;20044;-80
2021/04/14 02:55:24;;;;;;;7.33;4.10;;;4.00;76.20;;;;;;5019434;28;20082;-79
2021/04/14 02:57:49;;;;;;;5.83;3.20;;;4.10;76.60;;;;;;5054221;28;20170;-79
2021/04/14 03:00:17;;;;;;;7.50;4.30;;;4.30;77.30;;;;;;5035728;28;20500;-79
2021/04/14 03:02:43;;;;;;;8.77;4.17;;;4.40;76.40;;;;;;5035948;28;20112;-79
2021/04/14 03:05:10;;;;;;;12.10;3.80;;;4.40;76.60;;;;;;5053065;28;20598;-78
2021/04/14 03:07:40;;;;;;;12.10;4.10;;;4.30;75.60;;;;;;5035659;28;20032;-78
2021/04/14 03:10:07;;;;;;;14.53;4.93;;;4.20;75.40;;;;;;5032452;28;20021;-78
2021/04/14 03:12:33;;;;;;;8.73;4.33;;;4.10;75.80;;;;;;5053450;28;20059;-78
2021/04/14 03:14:59;;;;;;;8.27;4.50;;;4.10;76.10;;;;;;5019198;28;20013;-79
2021/04/14 03:17:25;;;;;;;9.03;4.80;;;4.00;75.70;;;;;;5018574;28;20024;-79
2021/04/14 03:19:51;;;;;;;10.53;5.17;;;3.80;75.60;;;;;;5015805;28;20025;-79
2021/04/14 03:22:17;;;;;;;7.97;5.03;;;3.60;76.00;;;;;;5035227;28;20111;-78
2021/04/14 03:24:42;;;;;;;7.87;4.03;;;3.70;77.00;;;;;;5035457;28;20046;-79
2021/04/14 03:27:08;;;;;;;8.63;3.97;;;3.80;77.30;;;;;;5018463;28;20040;-79
2021/04/14 03:29:34;;;;;;;7.17;4.30;;;3.90;77.60;;;;;;5018423;28;20143;-78
2021/04/14 03:32:02;;;;;;;8.80;5.23;;;4.00;77.30;;;;;;5035525;28;20125;-79
2021/04/14 03:34:28;;;;;;;9.77;4.97;;;4.00;77.10;;;;;;5034253;28;20025;-79
2021/04/14 03:36:54;;;;;;;10.63;4.50;;;4.10;77.20;;;;;;5031061;28;20078;-79
2021/04/14 03:39:19;;;;;;;12.43;4.90;;;4.10;77.30;;;;;;5017636;28;20036;-78
2021/04/14 03:41:45;;;;;;;9.90;5.20;;;4.10;77.10;;;;;;5015918;28;20041;-80
2021/04/14 03:44:11;;;;;;;8.10;4.83;;;4.20;77.50;;;;;;5015185;28;20463;-81
2021/04/14 03:46:36;;;;;;;9.03;4.17;;;4.30;78.80;;;;;;5046113;28;20061;-80
2021/04/14 03:49:02;;;;;;;11.07;4.70;;;4.80;79.80;;;;;;5035435;28;20074;-81
2021/04/14 03:51:28;;;;;;;13.17;5.37;;;5.20;78.90;;;;;;5051246;28;20471;-81
2021/04/14 03:53:55;;;;;;;8.47;4.60;;;5.50;76.20;;;;;;5053308;28;20108;-81
2021/04/14 03:56:21;;;;;;;8.87;3.90;;;5.40;75.80;;;;;;5034717;28;20037;-81
2021/04/14 03:58:52;;;;;;;8.33;4.23;;;5.60;76.80;;;;;;5035458;28;20040;-81
2021/04/14 04:01:29;;;;;;;7.27;4.30;;;5.80;76.00;;;;;;5015391;28;20041;-81
2021/04/14 04:03:55;;;;;;;9.90;4.33;;;6.10;74.90;;;;;;5050286;28;20059;-81
2021/04/14 04:06:22;;;;;;;7.23;3.57;;;6.20;74.00;;;;;;5056991;28;20033;-81
2021/04/14 04:08:48;;;;;;;9.23;4.07;;;6.30;73.50;;;;;;5025816;28;20036;-80
2021/04/14 04:11:18;;;;;;;7.07;4.00;;;6.40;72.70;;;;;;5052595;28;20033;-81
2021/04/14 04:13:44;;;;;;;7.83;4.30;;;6.40;72.40;;;;;;5034996;28;20119;-80
2021/04/14 04:16:10;;;;;;;6.07;3.73;;;6.40;72.10;;;;;;5052565;28;20021;-81
2021/04/14 04:18:36;;;;;;;8.73;3.43;;;6.50;72.10;;;;;;5001032;28;20124;-81
2021/04/14 04:21:04;;;;;;;5.40;3.73;;;6.70;71.70;;;;;;5034458;28;20030;-82
2021/04/14 04:23:29;;;;;;;8.63;3.87;;;6.70;71.80;;;;;;5033852;28;20083;-81
2021/04/14 04:25:55;;;;;;;8.43;3.50;;;6.70;70.70;;;;;;5034520;28;20033;-81
2021/04/14 04:28:21;;;;;;;8.53;3.47;;;6.70;70.70;;;;;;5051684;28;20114;-81
2021/04/14 04:30:47;;;;;;;8.53;4.07;;;6.70;70.40;;;;;;5067213;28;20121;-81
2021/04/14 04:33:13;;;;;;;12.57;4.10;;;6.60;70.00;;;;;;5051109;28;20461;-79
2021/04/14 04:35:39;;;;;;;7.97;3.70;;;6.60;70.00;;;;;;5051164;28;20032;-81
2021/04/14 04:38:06;;;;;;;6.20;3.23;;;6.60;70.20;;;;;;5034218;28;20025;-81
2021/04/14 04:40:32;;;;;;;8.47;4.27;;;6.60;70.10;;;;;;5016878;28;20037;-81
2021/04/14 04:42:58;;;;;;;10.47;4.93;;;6.70;70.10;;;;;;5034539;28;20394;-79
2021/04/14 04:45:27;;;;;;;10.87;5.77;;;6.70;69.50;;;;;;5050987;28;20029;-79
2021/04/14 04:47:54;;;;;;;12.83;5.27;;;6.60;69.60;;;;;;5052091;28;20036;-79
2021/04/14 04:50:26;;;;;;;12.60;5.33;;;6.70;69.30;;;;;;5034926;28;20063;-80
2021/04/14 04:52:52;;;;;;;10.18;4.60;;;6.80;69.30;;;;;;5004380;28;20067;-81
2021/04/14 04:55:17;;;;;;;8.37;4.13;;;6.80;69.00;;;;;;5033817;28;20064;-79
2021/04/14 04:57:43;;;;;;;7.43;4.47;;;6.90;68.70;;;;;;5050926;28;20025;-80
2021/04/14 05:00:09;;;;;;;9.10;3.77;;;6.90;68.70;;;;;;5052575;28;20021;-79
2021/04/14 05:02:35;;;;;;;9.00;4.87;;;7.00;68.60;;;;;;5016590;28;20036;-80
2021/04/14 05:05:01;;;;;;;10.07;4.90;;;7.10;67.40;;;;;;5033788;28;20052;-80
2021/04/14 05:07:26;;;;;;;9.73;4.63;;;6.70;66.80;;;;;;5050623;28;20033;-80
2021/04/14 05:09:52;;;;;;;7.60;4.47;;;6.60;68.10;;;;;;5016867;28;20040;-81
2021/04/14 05:12:18;;;;;;;9.20;4.40;;;6.90;68.30;;;;;;5017308;28;20051;-80
2021/04/14 05:14:44;;;;;;;7.93;3.83;;;7.30;67.70;;;;;;5032862;28;20025;-80
2021/04/14 05:17:09;;;;;;;7.03;4.20;;;7.60;66.60;;;;;;5034530;28;20045;-81
2021/04/14 05:19:35;;;;;;;7.40;3.87;;;8.00;65.80;;;;;;5001728;28;20036;-80
2021/04/14 05:22:01;;;;;;;6.80;3.93;;;8.40;64.40;;;;;;5019379;28;20048;-80
2021/04/14 05:24:27;;;;;;;8.63;3.83;;;8.90;62.90;;;;;;5017835;28;20078;-80
2021/04/14 05:26:53;;;;;;;10.63;3.30;;;9.20;61.50;;;;;;5033056;28;20075;-80
2021/04/14 05:29:18;;;;;;;8.80;3.73;;;8.90;61.50;;;;;;5033465;28;20493;-80
2021/04/14 05:31:44;;;;;;;8.37;4.00;;;8.70;62.10;;;;;;5033179;28;20493;-79
2021/04/14 05:34:10;;;;;;;9.97;3.83;;;8.40;62.30;;;;;;5017781;28;20025;-80
2021/04/14 05:36:36;;;;;;;5.60;3.70;;;8.20;63.00;;;;;;5032529;28;20044;-81
2021/04/14 05:39:02;;;;;;;9.13;3.97;;;8.10;63.40;;;;;;5016833;28;20040;-79
2021/04/14 05:41:28;;;;;;;5.50;3.73;;;7.70;63.30;;;;;;5033032;28;20110;-80
2021/04/14 05:43:54;;;;;;;7.83;3.60;;;7.40;65.10;;;;;;5016442;28;20080;-80
2021/04/14 05:46:21;;;;;;;4.80;3.70;;;7.50;65.80;;;;;;5036076;28;20385;-81
2021/04/14 05:48:48;;;;;;;7.73;3.93;;;7.60;66.00;;;;;;5031453;28;20029;-81
2021/04/14 05:51:18;;;;;;;6.33;3.50;;;7.80;66.20;;;;;;5033531;28;20048;-81
2021/04/14 05:53:46;;;;;;;9.90;4.00;;;7.90;66.10;;;;;;5050343;28;20024;-81
2021/04/14 05:56:12;;;;;;;5.67;3.70;;;8.00;66.00;;;;;;5017191;28;20033;-81
2021/04/14 05:58:38;;;;;;;7.27;3.73;;;8.10;66.20;;;;;;5051184;28;20390;-81
2021/04/14 06:01:07;;;;;;;13.50;4.20;;;8.10;66.50;;;;;;5017736;28;20148;-81
2021/04/14 06:03:33;;;;;;;5.73;4.13;;;8.10;66.30;;;;;;5032614;28;20037;-81
2021/04/14 06:06:00;;;;;;;10.13;4.83;;;8.20;66.10;;;;;;5033893;28;20498;-81
2021/04/14 06:08:26;;;;;;;7.90;4.23;;;8.20;65.90;;;;;;5051646;28;20033;-80
2021/04/14 06:10:52;;;;;;;9.90;4.33;;;8.30;65.80;;;;;;5051343;28;20036;-81
2021/04/14 06:13:17;;;;;;;6.40;4.50;;;8.30;65.70;;;;;;5017149;28;20036;-81
2021/04/14 06:15:44;;;;;;;8.30;4.53;;;8.50;65.40;;;;;;5015373;28;20071;-81
2021/04/14 06:18:10;;;;;;;6.93;4.20;;;8.50;65.30;;;;;;5033066;28;20056;-80
2021/04/14 06:20:36;;;;;;;7.07;4.90;;;8.60;64.90;;;;;;5050680;28;20083;-83
2021/04/14 06:23:06;;;;;;;10.60;4.57;;;8.60;64.00;;;;;;5016835;28;20047;-84
2021/04/14 06:25:36;;;;;;;7.13;4.43;;;8.40;64.80;;;;;;5051195;28;20032;-82
2021/04/14 06:30:29;;;;;;;11.03;5.53;;;8.10;64.90;;;;;;5048687;28;20037;-83
2021/04/14 06:32:54;;;;;;;15.67;9.07;;;7.40;64.80;;;;;;5034003;28;20032;-84
2021/04/14 06:35:23;;;;;;;23.83;14.27;;;6.80;66.90;;;;;;5069076;28;20036;-84
2021/04/14 06:37:49;;;;;;;16.07;9.27;;;6.80;69.60;;;;;;5049889;28;20481;-80
2021/04/14 06:40:34;;;;;;;15.93;9.03;;;7.20;68.90;;;;;;5052730;28;20025;-79
2021/04/14 06:43:37;;;;;;;23.37;11.00;;;6.90;67.30;;;;;;5061128;28;20197;-80
2021/04/14 06:46:20;;;;;;;26.33;11.03;;;7.00;69.00;;;;;;5032157;28;20029;-80
2021/04/14 06:49:10;;;;;;;25.10;14.32;;;7.40;68.30;;;;;;5034674;28;20052;-80
2021/04/14 06:51:41;;;;;;;37.03;20.53;;;7.70;67.60;;;;;;5014463;28;20080;-80
2021/04/14 06:54:24;;;;;;;30.90;14.60;;;8.20;66.50;;;;;;5029578;28;20025;-79
2021/04/14 06:56:53;;;;;;;14.10;8.10;;;8.50;65.10;;;;;;5031761;28;20465;-80
2021/04/14 06:59:22;;;;;;;20.60;12.27;;;8.40;63.70;;;;;;5032259;28;20049;-79
2021/04/14 07:01:52;;;;;;;16.83;10.47;;;8.00;64.70;;;;;;5049535;28;20060;-79
2021/04/14 07:04:29;;;;;;;15.20;10.53;;;7.70;64.90;;;;;;5032342;28;20055;-80
2021/04/14 07:06:55;;;;;;;22.63;15.00;;;7.70;65.80;;;;;;5049283;28;20035;-79
2021/04/14 07:09:31;;;;;;;15.60;7.97;;;8.20;66.00;;;;;;5016129;28;20398;-79
2021/04/14 07:11:57;;;;;;;14.90;7.03;;;8.20;64.00;;;;;;5058022;28;20033;-78
2021/04/14 07:14:24;;;;;;;19.03;7.63;;;7.90;64.40;;;;;;5032278;28;20036;-79
2021/04/14 07:17:16;;;;;;;13.73;9.00;;;7.50;65.30;;;;;;5014559;28;20029;-78
2021/04/14 07:19:48;;;;;;;21.43;9.13;;;7.20;66.20;;;;;;5037058;28;20035;-78
2021/04/14 07:22:40;;;;;;;18.57;10.03;;;7.40;66.50;;;;;;5041043;28;20024;-78
2021/04/14 07:25:14;;;;;;;15.23;9.10;;;8.30;66.10;;;;;;5050642;28;20084;-79
2021/04/14 07:27:55;;;;;;;15.93;9.70;;;9.50;61.90;;;;;;5041929;28;20040;-80
2021/04/14 07:30:56;;;;;;;18.13;10.77;;;10.40;58.10;;;;;;5056570;28;20021;-79
2021/04/14 07:33:44;;;;;;;15.50;10.73;;;11.30;55.30;;;;;;5017069;28;20045;-79
2021/04/14 07:36:46;;;;;;;14.30;9.40;;;12.10;52.70;;;;;;5015210;28;20147;-79
2021/04/14 07:39:42;;;;;;;11.93;6.57;;;12.50;50.80;;;;;;5043182;28;20128;-78
2021/04/14 07:42:33;;;;;;;9.33;4.80;;;12.90;47.70;;;;;;5052696;28;20021;-78
2021/04/14 07:45:29;;;;;;;14.30;9.90;;;12.30;46.10;;;;;;5034387;28;20049;-78
2021/04/14 07:48:44;;;;;;;7.80;5.47;;;12.40;48.90;;;;;;5034661;28;20025;-79
2021/04/14 07:51:18;;;;;;;6.87;4.20;;;12.60;46.40;;;;;;4951805;29;20023;-79
2021/04/14 07:54:10;;;;;;;11.83;4.50;;;12.80;44.50;;;;;;4952820;29;20070;-77
2021/04/14 07:56:44;;;;;;;8.70;5.20;;;12.60;45.40;;;;;;5005521;28;20037;-78
2021/04/14 07:59:14;;;;;;;8.13;5.17;;;13.10;44.80;;;;;;5052671;28;20133;-79
2021/04/14 08:01:58;;;;;;;8.30;5.90;;;12.60;43.60;;;;;;5052932;28;20047;-78
2021/04/14 08:04:29;;;;;;;7.33;5.23;;;11.90;46.40;;;;;;5052961;28;20053;-78
2021/04/14 08:07:26;;;;;;;12.50;7.77;;;11.60;46.10;;;;;;5034431;28;20025;-78
2021/04/14 08:09:51;;;;;;;14.23;8.53;;;11.30;48.20;;;;;;5039476;28;20051;-78
2021/04/14 08:12:57;;;;;;;13.10;7.10;;;11.70;48.80;;;;;;5072673;28;20041;-79
2021/04/14 08:15:33;;;;;;;10.77;6.67;;;12.50;46.90;;;;;;5053574;28;20037;-81
2021/04/14 08:18:12;;;;;;;12.70;8.20;;;12.70;44.90;;;;;;5034103;28;20025;-80
2021/04/14 08:20:39;;;;;;;12.77;7.10;;;12.80;45.70;;;;;;5032914;28;20033;-79
2021/04/14 08:23:13;;;;;;;11.60;6.57;;;13.30;45.10;;;;;;5033817;28;20045;-80
2021/04/14 08:25:46;;;;;;;13.33;7.83;;;13.10;44.70;;;;;;5014945;28;20115;-79
2021/04/14 08:28:12;;;;;;;16.23;8.23;;;13.10;46.00;;;;;;5014927;28;20044;-79
2021/04/14 08:30:40;;;;;;;11.80;7.03;;;13.60;45.30;;;;;;5014360;28;20033;-80
2021/04/14 08:33:18;;;;;;;9.48;6.18;;;13.90;44.40;;;;;;5018516;28;20151;-80
2021/04/14 08:35:48;;;;;;;12.38;8.45;;;14.10;42.40;;;;;;5072470;28;20035;-80
2021/04/14 08:38:27;;;;;;;16.77;11.57;;;14.80;43.10;;;;;;5043114;28;20017;-81
2021/04/14 08:40:57;;;;;;;12.10;8.02;;;15.60;41.80;;;;;;5034263;28;20111;-79
2021/04/14 08:43:41;;;;;;;13.02;7.60;;;16.10;39.50;;;;;;5051147;28;20055;-80
2021/04/14 08:46:32;;;;;;;7.53;5.90;;;16.20;39.40;;;;;;5038911;28;20093;-78
2021/04/14 08:49:03;;;;;;;8.50;6.05;;;16.40;38.30;;;;;;5059415;28;20025;-82
2021/04/14 08:51:36;;;;;;;7.85;5.93;;;16.20;37.60;;;;;;5052199;28;20509;-80
2021/04/14 08:54:03;;;;;;;7.88;5.55;;;16.50;38.40;;;;;;5048473;28;20039;-81
2021/04/14 08:56:28;;;;;;;6.95;5.82;;;16.80;36.50;;;;;;5025877;28;20394;-81
2021/04/14 08:58:55;;;;;;;9.65;6.82;;;16.70;36.00;;;;;;5017276;28;20029;-81
2021/04/14 09:01:21;;;;;;;7.20;5.47;;;16.90;36.60;;;;;;5016194;28;20243;-81
2021/04/14 09:03:48;;;;;;;9.98;5.95;;;17.20;36.80;;;;;;5033198;28;20064;-81
2021/04/14 09:06:18;;;;;;;7.93;4.95;;;17.40;35.20;;;;;;5051296;28;20028;-81
2021/04/14 09:08:48;;;;;;;7.88;5.50;;;17.20;35.50;;;;;;5032113;28;20021;-79
2021/04/14 09:11:23;;;;;;;8.82;5.97;;;16.00;36.60;;;;;;5015559;28;20120;-78
2021/04/14 09:13:51;;;;;;;11.20;6.55;;;14.90;38.90;;;;;;5016826;28;20029;-80
2021/04/14 09:16:50;;;;;;;11.48;6.25;;;14.50;39.60;;;;;;5049390;28;20025;-80
2021/04/14 09:19:25;;;;;;;9.93;5.68;;;13.80;40.10;;;;;;5017740;28;20179;-80
2021/04/14 09:22:10;;;;;;;15.07;7.63;;;13.20;40.40;;;;;;5032954;28;20033;-80
2021/04/14 09:24:51;;;;;;;11.40;7.35;;;13.00;42.00;;;;;;5034005;28;20045;-80
2021/04/14 09:27:38;;;;;;;9.95;7.50;;;13.10;41.90;;;;;;5055857;28;20079;-80
2021/04/14 09:30:03;;;;;;;12.68;7.38;;;13.20;42.80;;;;;;5032173;28;20037;-81
2021/04/14 09:32:38;;;;;;;13.53;7.73;;;13.10;41.50;;;;;;5033335;28;20041;-80
2021/04/14 09:35:15;;;;;;;14.02;6.68;;;12.90;42.70;;;;;;5019282;28;20475;-81
2021/04/14 09:37:43;;;;;;;11.57;7.73;;;12.70;42.30;;;;;;5031547;28;20036;-79
2021/04/14 09:40:10;;;;;;;9.67;6.63;;;12.50;43.60;;;;;;5012906;28;20029;-78
2021/04/14 09:42:58;;;;;;;13.40;6.97;;;12.40;43.90;;;;;;5030810;28;20435;-79
2021/04/14 09:45:26;;;;;;;12.33;5.93;;;12.00;42.10;;;;;;5053839;28;20295;-81
2021/04/14 09:47:53;;;;;;;8.90;6.10;;;12.20;42.20;;;;;;5039541;28;20033;-77
2021/04/14 09:50:21;;;;;;;9.23;6.07;;;11.90;42.70;;;;;;5030523;28;20119;-78
2021/04/14 09:52:53;;;;;;;11.90;6.20;;;12.40;42.80;;;;;;5033135;28;20482;-78
2021/04/14 09:55:41;;;;;;;10.30;5.30;;;12.90;42.50;;;;;;5032945;28;20021;-78
2021/04/14 09:58:24;;;;;;;7.40;4.60;;;12.90;39.00;;;;;;5026063;28;20032;-80
2021/04/14 10:01:09;;;;;;;8.52;6.00;;;12.20;39.20;;;;;;5033310;28;20115;-79
2021/04/14 10:03:37;;;;;;;11.63;7.17;;;11.80;40.00;;;;;;5030003;28;20029;-79
2021/04/14 10:06:10;;;;;;;15.47;9.53;;;11.50;42.90;;;;;;5046759;28;20113;-80
2021/04/14 10:08:38;;;;;;;12.70;7.90;;;12.00;44.20;;;;;;5048238;28;20036;-81
2021/04/14 10:11:04;;;;;;;14.27;7.80;;;12.40;43.40;;;;;;5031491;28;20092;-79
2021/04/14 10:13:32;;;;;;;13.70;8.27;;;12.90;42.50;;;;;;5000189;28;20108;-80
2021/04/14 10:15:58;;;;;;;12.93;7.43;;;13.10;42.40;;;;;;5048340;28;20017;-81
2021/04/14 10:18:31;;;;;;;11.47;7.63;;;13.20;41.10;;;;;;5015633;28;20695;-80
2021/04/14 10:21:23;;;;;;;8.85;6.72;;;13.00;41.60;;;;;;5056381;28;20074;-81
2021/04/14 10:24:02;;;;;;;9.67;6.90;;;12.70;41.90;;;;;;5030355;28;20148;-81
2021/04/14 10:26:32;;;;;;;10.53;6.90;;;12.70;41.40;;;;;;5007164;28;20053;-80
2021/04/14 10:29:01;;;;;;;9.03;6.60;;;12.80;41.20;;;;;;5016052;28;20445;-80
2021/04/14 10:31:27;;;;;;;11.73;7.90;;;13.20;40.60;;;;;;5006141;28;20054;-80
2021/04/14 10:34:07;;;;;;;13.30;8.50;;;13.70;40.80;;;;;;5048685;28;20036;-79
2021/04/14 10:36:43;;;;;;;12.20;8.32;;;14.60;40.40;;;;;;5034322;28;20049;-81
2021/04/14 10:39:12;;;;;;;11.77;7.28;;;15.30;39.80;;;;;;5059066;28;20029;-81
2021/04/14 10:41:38;;;;;;;12.80;8.43;;;15.30;36.20;;;;;;5042777;28;20029;-79
2021/04/14 10:44:17;;;;;;;12.45;8.18;;;14.90;36.90;;;;;;5036447;28;20108;-80
2021/04/14 10:46:44;;;;;;;12.65;8.73;;;14.60;37.10;;;;;;5059363;28;20029;-81
2021/04/14 10:49:28;;;;;;;10.57;8.50;;;14.50;38.50;;;;;;5044495;28;20029;-80
2021/04/14 10:51:58;;;;;;;15.77;10.68;;;14.60;39.10;;;;;;5049111;28;20044;-81
2021/04/14 10:54:31;;;;;;;11.57;7.95;;;14.70;38.50;;;;;;5057515;28;20029;-82
2021/04/14 10:57:24;;;;;;;14.18;9.52;;;14.60;37.60;;;;;;5036934;28;20025;-81
2021/04/14 10:59:49;;;;;;;13.15;7.85;;;14.50;38.70;;;;;;5058599;28;20029;-80
2021/04/14 11:02:22;;;;;;;12.50;7.95;;;14.50;38.70;;;;;;5043517;28;20040;-81
2021/04/14 11:04:49;;;;;;;;;;;14.50;38.70;;;;;;5063368;28;20057;-80
2021/04/14 11:07:20;;;;;;;12.70;7.38;;;14.50;39.50;;;;;;5062794;28;19929;-81
2021/04/14 11:09:47;;;;;;;10.32;7.15;;;14.60;39.30;;;;;;5049838;28;20028;-80
2021/04/14 11:12:21;;;;;;;13.68;7.68;;;14.60;39.60;;;;;;5054603;28;20041;-80
2021/04/14 11:14:49;;;;;;;7.80;6.18;;;14.60;39.80;;;;;;5050331;28;20032;-81
2021/04/14 11:17:28;;;;;;;12.57;8.00;;;14.50;38.50;;;;;;5041006;28;20078;-80
2021/04/14 11:19:57;;;;;;;12.05;7.60;;;14.30;39.10;;;;;;5055961;28;20021;-81
2021/04/14 11:22:24;;;;;;;9.13;6.95;;;14.10;39.50;;;;;;5056053;28;20032;-82
2021/04/14 11:24:55;;;;;;;14.52;8.18;;;14.20;40.00;;;;;;5029961;28;20040;-79
2021/04/14 11:27:21;;;;;;;11.93;8.20;;;13.10;44.60;;;;;;5017562;28;20022;-82
2021/04/14 11:29:48;;;;;;;11.17;8.53;;;11.90;49.60;;;;;;5036100;28;20037;-81
2021/04/14 11:32:15;;;;;;;17.20;10.93;;;11.20;52.20;;;;;;5035566;28;20107;-78
2021/04/14 11:34:41;;;;;;;15.37;9.80;;;10.90;53.10;;;;;;5051935;28;20613;-79
2021/04/14 11:37:36;;;;;;;16.00;9.30;;;10.60;54.20;;;;;;5036148;28;20032;-78
2021/04/14 11:40:06;;;;;;;13.23;9.67;;;10.50;55.00;;;;;;5025604;28;20030;-79
2021/04/14 11:42:44;;;;;;;15.27;9.40;;;10.80;55.30;;;;;;5031724;28;20025;-77
2021/04/14 11:45:10;;;;;;;14.33;10.23;;;10.70;56.20;;;;;;5031429;28;20025;-79
2021/04/14 11:47:40;;;;;;;14.43;9.47;;;10.20;57.20;;;;;;5034011;28;20033;-79
2021/04/14 11:50:15;;;;;;;14.37;9.93;;;9.60;60.10;;;;;;5019383;28;20025;-80
2021/04/14 11:52:54;;;;;;;16.80;10.63;;;9.30;62.30;;;;;;5034571;28;20513;-80
2021/04/14 11:55:20;;;;;;;15.80;10.23;;;9.00;62.60;;;;;;5040474;28;20029;-80
2021/04/14 11:57:48;;;;;;;14.37;10.37;;;9.20;64.00;;;;;;5045154;28;20041;-81
2021/04/14 12:00:20;;;;;;;15.10;10.40;;;9.40;62.10;;;;;;5036184;28;20466;-80
2021/04/14 12:02:49;;;;;;;20.17;14.07;;;9.90;61.70;;;;;;5052636;28;20028;-80
2021/04/14 12:05:15;;;;;;;15.10;11.03;;;9.90;60.80;;;;;;5053633;28;20115;-80
2021/04/14 12:07:41;;;;;;;20.97;12.93;;;10.10;59.40;;;;;;5034667;28;20116;-80
2021/04/14 12:10:10;;;;;;;17.83;10.47;;;10.10;58.20;;;;;;5052806;28;20121;-79
2021/04/14 12:12:36;;;;;;;16.80;10.70;;;10.10;57.30;;;;;;5033760;28;20119;-78
2021/04/14 12:15:04;;;;;;;14.23;9.70;;;10.40;58.30;;;;;;5019360;28;20510;-80
2021/04/14 12:17:30;;;;;;;15.97;10.43;;;10.50;55.50;;;;;;5044420;28;20029;-80
2021/04/14 12:19:57;;;;;;;14.63;9.60;;;10.30;55.70;;;;;;5043143;28;20035;-80
2021/04/14 12:22:23;;;;;;;12.73;8.40;;;10.50;56.30;;;;;;5042946;28;20031;-80
2021/04/14 12:24:49;;;;;;;13.57;8.60;;;11.10;55.60;;;;;;5043795;28;20028;-81
2021/04/14 12:27:14;;;;;;;12.37;8.77;;;12.00;54.30;;;;;;5051685;28;20024;-81
2021/04/14 12:29:40;;;;;;;11.63;9.53;;;12.40;52.20;;;;;;5038101;28;20386;-80
2021/04/14 12:32:07;;;;;;;8.70;6.77;;;12.40;51.70;;;;;;5037705;28;20040;-80
2021/04/14 12:34:33;;;;;;;8.50;7.43;;;12.30;52.10;;;;;;5014966;28;20037;-80
2021/04/14 12:36:58;;;;;;;8.53;5.93;;;12.20;48.90;;;;;;5031583;28;20032;-83
2021/04/14 12:39:26;;;;;;;7.83;6.67;;;11.50;49.00;;;;;;5036110;28;20108;-82
2021/04/14 12:41:52;;;;;;;7.20;6.10;;;11.60;52.50;;;;;;5063529;28;20025;-82
2021/04/14 12:44:21;;;;;;;9.90;6.83;;;12.10;50.90;;;;;;5047570;28;20049;-81
2021/04/14 12:46:48;;;;;;;8.53;6.33;;;12.70;48.70;;;;;;5046712;28;20128;-82
2021/04/14 12:49:15;;;;;;;8.73;7.50;;;13.00;47.80;;;;;;5051585;28;20089;-82
2021/04/14 12:51:54;;;;;;;10.03;7.50;;;13.00;43.20;;;;;;5036053;28;20033;-81
2021/04/14 12:54:26;;;;;;;14.17;8.47;;;12.90;44.30;;;;;;5074485;28;20033;-81
2021/04/14 12:56:51;;;;;;;9.80;7.03;;;13.00;43.80;;;;;;5052903;28;20025;-81
2021/04/14 12:59:21;;;;;;;12.47;7.20;;;13.00;43.10;;;;;;5048846;28;20029;-80
2021/04/14 13:01:55;;;;;;;9.37;6.33;;;13.00;42.70;;;;;;5044191;28;20033;-80
2021/04/14 13:04:46;;;;;;;8.83;6.50;;;13.00;43.00;;;;;;5062692;28;20656;-81
2021/04/14 13:07:24;;;;;;;9.27;6.33;;;13.00;43.70;;;;;;5048220;28;20039;-81